Time;durP1;ratioP1;P1;durP2;ratioP2;P2;SDS_P1;SDS_P2;PMS_P1;PMS_P2;Temp;Humidity;BMP_temperature;BMP_pressure;BME280_temperature;BME280_humidity;BME280_pressure;Samples;Min_cycle;Max_cycle;Signal;HPM_P1;HPM_P2
2023/02/25 00:01:05;;;;;;;0.20;0.20;;;;;;;-2.88;85.71;97900.63;5107567;28;20071;-69
2023/02/25 00:03:32;;;;;;;0.10;0.10;;;;;;;-2.91;85.86;97905.63;5108193;28;20048;-69
2023/02/25 00:05:59;;;;;;;0.20;0.20;;;;;;;-2.92;86.15;97899.44;5107072;28;20054;-69
2023/02/25 00:08:25;;;;;;;;;;;;;;;-2.91;86.24;97897.59;5106679;28;20089;-68
2023/02/25 00:10:56;;;;;;;0.50;0.10;;;;;;;-2.94;86.17;97893.53;5105333;28;19931;-68
2023/02/25 00:13:24;;;;;;;0.10;0.10;;;;;;;-2.92;86.34;97894.09;5089832;28;20043;-68
2023/02/25 00:15:50;;;;;;;0.10;0.10;;;;;;;-2.84;86.20;97890.25;5107814;28;20093;-68
2023/02/25 00:18:16;;;;;;;0.10;0.10;;;;;;;-2.85;85.90;97897.47;5082915;28;20461;-69
2023/02/25 00:20:42;;;;;;;0.10;0.10;;;;;;;-2.83;86.00;97888.41;5067373;28;20054;-68
2023/02/25 00:23:08;;;;;;;0.10;0.10;;;;;;;-2.81;86.11;97888.97;5086287;28;20055;-69
2023/02/25 00:25:34;;;;;;;0.10;0.10;;;;;;;-2.77;86.25;97882.94;5089983;28;20052;-69
2023/02/25 00:28:04;;;;;;;0.10;0.10;;;;;;;-2.83;86.23;97886.53;5079678;28;20054;-69
2023/02/25 00:30:33;;;;;;;0.10;0.10;;;;;;;-2.85;86.43;97880.59;5110786;28;20726;-69
2023/02/25 00:32:59;;;;;;;0.10;0.10;;;;;;;-2.81;86.40;97880.94;5108313;28;20105;-69
2023/02/25 00:35:25;;;;;;;0.10;0.10;;;;;;;-2.80;86.33;97869.19;5088118;28;20086;-69
2023/02/25 00:37:52;;;;;;;0.10;0.10;;;;;;;-2.74;86.48;97866.41;5065486;28;20163;-69
2023/02/25 00:40:18;;;;;;;0.20;0.20;;;;;;;-2.76;86.30;97862.31;5088253;28;20052;-69
2023/02/25 00:42:44;;;;;;;0.10;0.10;;;;;;;-2.76;86.28;97852.44;5086269;28;20086;-69
2023/02/25 00:45:11;;;;;;;0.17;0.17;;;;;;;-2.79;86.53;97860.13;5067205;28;20048;-69
2023/02/25 00:47:38;;;;;;;0.10;0.10;;;;;;;-2.77;86.51;97852.69;5066480;28;20141;-68
2023/02/25 00:50:08;;;;;;;0.10;0.10;;;;;;;-2.76;86.45;97855.13;5085515;28;20047;-69
2023/02/25 00:52:34;;;;;;;0.10;0.10;;;;;;;-2.73;86.23;97856.53;5084259;28;20043;-69
2023/02/25 00:55:00;;;;;;;0.10;0.10;;;;;;;-2.71;86.23;97857.91;5086571;28;20067;-69
2023/02/25 00:57:29;;;;;;;0.10;0.10;;;;;;;-2.71;86.41;97849.88;5088057;28;20065;-69
2023/02/25 00:59:56;;;;;;;0.10;0.10;;;;;;;-2.66;86.22;97853.69;5086684;28;20086;-69
2023/02/25 01:02:22;;;;;;;0.10;0.10;;;;;;;-2.62;86.25;97853.00;5085731;28;20074;-69
2023/02/25 01:04:49;;;;;;;0.10;0.10;;;;;;;-2.59;86.23;97857.06;5100426;22;20415;-70
2023/02/25 01:07:15;;;;;;;0.10;0.10;;;;;;;-2.62;86.01;97849.53;5056796;28;20059;-71
2023/02/25 01:09:41;;;;;;;0.10;0.10;;;;;;;-2.65;86.11;97844.66;5064232;28;20086;-71
2023/02/25 01:12:08;;;;;;;0.10;0.10;;;;;;;-2.64;86.23;97848.94;5065751;28;20048;-71
2023/02/25 01:14:34;;;;;;;0.10;0.10;;;;;;;-2.65;86.41;97848.13;5063252;28;20051;-71
2023/02/25 01:17:01;;;;;;;0.13;0.13;;;;;;;-2.59;86.28;97847.16;5065457;28;20489;-70
2023/02/25 01:19:28;;;;;;;;;;;;;;;-2.62;86.34;97844.97;5064919;28;20056;-70
2023/02/25 01:21:57;;;;;;;0.10;0.10;;;;;;;-2.61;86.42;97845.78;5064009;28;19935;-71
2023/02/25 01:24:25;;;;;;;0.30;0.10;;;;;;;-2.59;86.18;97838.34;5061246;28;20072;-71
2023/02/25 01:26:55;;;;;;;0.10;0.10;;;;;;;-2.58;86.39;97837.28;5045147;28;20091;-71
2023/02/25 01:29:22;;;;;;;;;;;;;;;-2.57;86.13;97841.59;5047516;28;20053;-71
2023/02/25 01:31:51;;;;;;;0.10;0.10;;;;;;;-2.61;86.16;97830.53;5053441;28;20458;-71
2023/02/25 01:34:17;;;;;;;0.10;0.10;;;;;;;-2.59;85.80;97832.97;5063576;28;20151;-71
2023/02/25 01:36:44;;;;;;;0.10;0.10;;;;;;;-2.62;86.20;97825.44;5064321;28;20512;-71
2023/02/25 01:39:13;;;;;;;0.20;0.20;;;;;;;-2.52;86.37;97833.66;5064361;28;20462;-71
2023/02/25 01:41:40;;;;;;;0.10;0.10;;;;;;;-2.51;86.40;97829.91;5062942;28;20229;-71
2023/02/25 01:44:10;;;;;;;0.10;0.10;;;;;;;-2.49;86.50;97829.69;5067123;28;20048;-71
2023/02/25 01:46:37;;;;;;;0.10;0.10;;;;;;;-2.45;86.44;97831.66;5064793;28;20052;-71
2023/02/25 01:49:06;;;;;;;0.10;0.10;;;;;;;-2.43;86.42;97821.53;5062923;28;20438;-71
2023/02/25 01:51:33;;;;;;;0.10;0.10;;;;;;;-2.37;86.45;97826.97;5062739;28;20071;-71
2023/02/25 01:54:01;;;;;;;0.10;0.10;;;;;;;-2.40;86.33;97816.75;5066384;28;20061;-71
2023/02/25 01:56:30;;;;;;;0.10;0.10;;;;;;;-2.40;86.45;97814.06;5063630;28;20080;-71
2023/02/25 01:58:57;;;;;;;0.10;0.10;;;;;;;-2.39;86.42;97813.84;5047584;28;20484;-71
2023/02/25 02:01:27;;;;;;;0.10;0.10;;;;;;;-2.39;86.52;97810.34;5047778;28;20080;-71
2023/02/25 02:03:53;;;;;;;0.10;0.10;;;;;;;-2.37;86.59;97816.25;5045979;28;20044;-71
2023/02/25 02:06:23;;;;;;;0.10;0.10;;;;;;;-2.40;86.58;97809.53;5063307;28;20436;-71
2023/02/25 02:08:49;;;;;;;0.20;0.20;;;;;;;-2.36;86.65;97815.19;5066478;28;20595;-71
2023/02/25 02:11:15;;;;;;;0.10;0.10;;;;;;;-2.38;86.57;97806.59;5066625;28;20060;-71
2023/02/25 02:13:47;;;;;;;0.10;0.10;;;;;;;-2.36;86.76;97809.84;5061378;28;20348;-71
2023/02/25 02:16:31;;;;;;;0.20;0.20;;;;;;;-2.40;86.79;97801.50;5070246;28;20076;-71
2023/02/25 02:19:09;;;;;;;0.10;0.10;;;;;;;-2.38;86.95;97815.47;5069084;28;20507;-71
2023/02/25 02:21:59;;;;;;;0.10;0.10;;;;;;;-2.36;86.78;97804.50;5068715;28;20044;-71
2023/02/25 02:24:51;;;;;;;0.20;0.20;;;;;;;-2.34;86.85;97797.03;5067809;28;20075;-71
2023/02/25 02:27:23;;;;;;;0.10;0.10;;;;;;;-2.37;86.86;97797.50;5068631;28;20066;-71
2023/02/25 02:30:16;;;;;;;0.20;0.20;;;;;;;-2.37;86.78;97797.50;5070610;28;20143;-71
2023/02/25 02:32:52;;;;;;;0.10;0.10;;;;;;;-2.32;86.76;97801.09;5067414;28;20140;-71
2023/02/25 02:35:22;;;;;;;0.10;0.10;;;;;;;-2.35;86.88;97798.91;5068627;28;20133;-71
2023/02/25 02:37:57;;;;;;;0.10;0.10;;;;;;;-2.33;86.81;97793.31;5066812;28;20040;-71
2023/02/25 02:40:42;;;;;;;0.10;0.10;;;;;;;-2.33;86.75;97791.44;5066383;28;20049;-70
2023/02/25 02:43:20;;;;;;;0.20;0.20;;;;;;;-2.35;86.93;97792.72;5046960;28;20068;-71
2023/02/25 02:45:49;;;;;;;0.10;0.10;;;;;;;-2.40;86.98;97777.41;5066176;28;20186;-71
2023/02/25 02:48:21;;;;;;;0.20;0.20;;;;;;;-2.40;87.03;97782.75;5067920;28;20101;-71
2023/02/25 02:50:53;;;;;;;0.10;0.10;;;;;;;-2.51;87.16;97757.66;5050269;28;20160;-71
2023/02/25 02:53:26;;;;;;;0.20;0.20;;;;;;;-2.38;87.08;97790.53;5067064;28;20036;-71
2023/02/25 02:55:56;;;;;;;0.10;0.10;;;;;;;-2.40;87.18;97782.75;5065061;28;20131;-71
2023/02/25 02:58:26;;;;;;;0.10;0.10;;;;;;;-2.37;87.47;97789.47;5046622;28;20055;-71
2023/02/25 03:00:58;;;;;;;0.10;0.10;;;;;;;-2.36;87.45;97783.91;5065058;28;20098;-71
2023/02/25 03:03:35;;;;;;;0.23;0.10;;;;;;;-2.33;87.19;97779.94;5066788;28;20049;-71
2023/02/25 03:06:08;;;;;;;0.10;0.10;;;;;;;-2.32;87.16;97781.56;5085571;28;20064;-71
2023/02/25 03:08:43;;;;;;;0.13;0.13;;;;;;;-2.27;87.28;97784.31;5069046;28;20052;-71
2023/02/25 03:11:09;;;;;;;0.10;0.10;;;;;;;-2.19;86.97;97775.09;5068390;28;20047;-71
2023/02/25 03:13:36;;;;;;;0.10;0.10;;;;;;;-2.21;87.05;97767.28;5050475;28;20531;-71
2023/02/25 03:16:06;;;;;;;0.10;0.10;;;;;;;-2.19;86.87;97769.72;5067265;28;20048;-71
2023/02/25 03:18:37;;;;;;;0.20;0.20;;;;;;;-2.14;86.75;97778.66;5048135;28;20056;-71
2023/02/25 03:21:12;;;;;;;0.10;0.10;;;;;;;-2.09;86.54;97766.41;5031216;28;20044;-71
2023/02/25 03:23:40;;;;;;;0.10;0.10;;;;;;;-2.10;86.29;97767.47;5065291;28;20049;-71
2023/02/25 03:26:13;;;;;;;0.10;0.10;;;;;;;-2.14;86.13;97765.28;5064687;28;20037;-71
2023/02/25 03:28:43;;;;;;;0.10;0.10;;;;;;;-2.11;86.24;97774.69;5065757;28;20089;-71
2023/02/25 03:31:15;;;;;;;0.20;0.20;;;;;;;-2.09;86.40;97766.41;5067100;28;20055;-71
2023/02/25 03:33:47;;;;;;;0.10;0.10;;;;;;;-2.02;86.35;97777.81;5068104;28;20045;-71
2023/02/25 03:36:18;;;;;;;0.10;0.10;;;;;;;-2.00;86.01;97764.97;5064993;28;20058;-71
2023/02/25 03:38:49;;;;;;;0.13;0.13;;;;;;;-2.07;86.02;97761.63;5064380;28;20508;-71
2023/02/25 03:41:18;;;;;;;0.10;0.10;;;;;;;-2.03;86.19;97776.16;5066643;28;20087;-71
2023/02/25 03:43:47;;;;;;;0.10;0.10;;;;;;;-2.02;86.02;97761.72;5048530;28;20573;-71
2023/02/25 03:46:16;;;;;;;0.10;0.10;;;;;;;-2.01;86.18;97758.00;5065470;28;20052;-71
2023/02/25 03:48:45;;;;;;;0.10;0.10;;;;;;;-2.06;86.09;97753.34;5068853;28;20048;-70
2023/02/25 03:51:14;;;;;;;0.20;0.20;;;;;;;-2.00;86.20;97768.44;5048479;28;20041;-71
2023/02/25 03:53:41;;;;;;;0.10;0.10;;;;;;;-1.91;86.08;97770.75;5066098;28;20140;-71
2023/02/25 03:56:11;;;;;;;0.10;0.10;;;;;;;-1.87;86.06;97761.16;5046371;28;20072;-71
2023/02/25 03:58:41;;;;;;;0.13;0.13;;;;;;;-1.86;86.00;97760.09;5066724;28;20044;-71
2023/02/25 04:01:11;;;;;;;0.10;0.10;;;;;;;-1.84;85.88;97755.31;5065388;28;20508;-71
2023/02/25 04:03:37;;;;;;;0.10;0.10;;;;;;;-1.85;85.88;97769.75;5048382;28;20048;-71
2023/02/25 04:06:05;;;;;;;0.10;0.10;;;;;;;-1.85;86.09;97761.72;5067072;28;20286;-71
2023/02/25 04:08:31;;;;;;;0.10;0.10;;;;;;;-1.79;86.17;97759.94;5066442;28;20048;-69
2023/02/25 04:10:57;;;;;;;0.10;0.10;;;;;;;-1.79;85.93;97757.25;5068851;28;20051;-69
2023/02/25 04:13:23;;;;;;;0.10;0.10;;;;;;;-1.74;86.08;97755.47;5069842;28;20036;-70
2023/02/25 04:15:49;;;;;;;0.10;0.10;;;;;;;-1.75;86.15;97753.84;5068488;28;20058;-69
2023/02/25 04:18:16;;;;;;;0.10;0.10;;;;;;;-1.74;86.22;97754.63;5031796;28;20040;-69
2023/02/25 04:20:42;;;;;;;0.20;0.20;;;;;;;-1.67;86.09;97749.94;5065679;28;20463;-69
2023/02/25 04:23:13;;;;;;;0.10;0.10;;;;;;;-1.65;85.90;97758.56;5065394;28;20045;-69
2023/02/25 04:25:39;;;;;;;0.10;0.10;;;;;;;-1.64;85.93;97753.97;5050255;28;20048;-69
2023/02/25 04:28:06;;;;;;;0.20;0.20;;;;;;;-1.67;85.81;97751.81;5065734;28;20048;-69
2023/02/25 04:30:32;;;;;;;0.10;0.10;;;;;;;-1.63;85.92;97752.94;5068702;28;20116;-69
2023/02/25 04:32:58;;;;;;;0.10;0.10;;;;;;;-1.59;86.18;97754.88;5067340;28;20114;-69
2023/02/25 04:35:24;;;;;;;0.10;0.10;;;;;;;-1.55;85.86;97760.56;5048535;28;20068;-69
2023/02/25 04:37:50;;;;;;;0.20;0.20;;;;;;;-1.60;85.82;97755.94;5062247;28;20056;-69
2023/02/25 04:40:20;;;;;;;0.20;0.20;;;;;;;-1.55;85.82;97757.09;5069521;28;20048;-69
2023/02/25 04:42:47;;;;;;;0.10;0.10;;;;;;;-1.51;85.91;97755.53;5048991;28;20127;-69
2023/02/25 04:45:14;;;;;;;0.10;0.10;;;;;;;-1.49;86.05;97758.78;5062638;28;20048;-69
2023/02/25 04:47:40;;;;;;;0.20;0.20;;;;;;;-1.46;86.04;97755.59;5066839;28;20051;-69
2023/02/25 04:50:09;;;;;;;0.10;0.10;;;;;;;-1.45;85.89;97758.03;5065301;28;20068;-69
2023/02/25 04:52:35;;;;;;;0.10;0.10;;;;;;;-1.44;85.94;97758.84;5046505;28;20121;-69
2023/02/25 04:55:01;;;;;;;0.10;0.10;;;;;;;-1.43;86.20;97769.31;5046858;28;20063;-70
2023/02/25 04:57:29;;;;;;;0.10;0.10;;;;;;;-1.47;86.39;97764.69;5060005;28;20044;-69
2023/02/25 04:59:55;;;;;;;0.10;0.10;;;;;;;-1.45;86.59;97775.97;5067064;28;20048;-69
2023/02/25 05:02:21;;;;;;;0.10;0.10;;;;;;;-1.47;86.92;97773.56;5066552;28;20052;-69
2023/02/25 05:04:47;;;;;;;0.10;0.10;;;;;;;-1.45;87.15;97779.50;5067545;28;20060;-69
2023/02/25 05:07:14;;;;;;;0.10;0.10;;;;;;;-1.42;87.29;97772.81;5065916;28;20428;-69
2023/02/25 05:09:40;;;;;;;0.10;0.10;;;;;;;-1.41;87.24;97774.44;5061621;28;20045;-69
2023/02/25 05:12:06;;;;;;;0.20;0.20;;;;;;;-1.36;87.36;97765.66;5066542;28;20063;-69
2023/02/25 05:14:35;;;;;;;0.13;0.13;;;;;;;-1.33;87.11;97774.03;5066206;28;20047;-69
2023/02/25 05:17:01;;;;;;;0.10;0.10;;;;;;;-1.30;87.15;97773.53;5066442;28;20056;-70
2023/02/25 05:19:27;;;;;;;0.13;0.13;;;;;;;-1.21;87.13;97773.91;5064526;28;20052;-70
2023/02/25 05:21:53;;;;;;;0.10;0.10;;;;;;;-1.17;86.79;97775.06;5064928;28;20067;-69
2023/02/25 05:24:22;;;;;;;0.10;0.10;;;;;;;-1.17;86.51;97771.53;5067537;28;20053;-71
2023/02/25 05:26:50;;;;;;;0.13;0.13;;;;;;;-1.14;86.70;97771.03;5063925;28;20048;-71
2023/02/25 05:29:16;;;;;;;;;;;;;;;-1.07;86.65;97771.69;5063734;28;20563;-70
2023/02/25 05:31:43;;;;;;;0.10;0.10;;;;;;;-1.07;86.31;97785.09;5065108;28;20045;-71
2023/02/25 05:34:09;;;;;;;0.10;0.10;;;;;;;-1.05;86.30;97769.56;5066491;28;20091;-71
2023/02/25 05:36:35;;;;;;;0.10;0.10;;;;;;;-1.04;86.37;97773.03;5062171;28;20045;-69
2023/02/25 05:39:02;;;;;;;0.10;0.10;;;;;;;-1.01;86.63;97781.41;5052697;28;20053;-71
2023/02/25 05:41:29;;;;;;;0.10;0.10;;;;;;;-1.06;86.41;97780.53;5032870;28;20051;-71
2023/02/25 05:43:56;;;;;;;0.10;0.10;;;;;;;-1.02;86.60;97782.47;5057370;28;20048;-71
2023/02/25 05:46:22;;;;;;;0.10;0.10;;;;;;;-0.98;86.85;97782.81;5058460;28;20070;-72
2023/02/25 05:48:49;;;;;;;0.10;0.10;;;;;;;-0.99;86.81;97786.53;5045463;28;20049;-72
2023/02/25 05:51:17;;;;;;;;;;;;;;;-0.94;87.01;97775.88;5046744;28;20087;-71
2023/02/25 05:53:47;;;;;;;;;;;;;;;-0.90;86.90;97777.00;5048441;28;19931;-69
2023/02/25 05:56:16;;;;;;;0.10;0.10;;;;;;;-0.86;86.47;97782.69;5064284;28;19925;-69
2023/02/25 05:58:42;;;;;;;0.10;0.10;;;;;;;-0.78;86.37;97784.94;5048891;28;20052;-70
2023/02/25 06:01:11;;;;;;;0.15;0.15;;;;;;;-0.76;86.30;97793.53;5047290;28;20070;-71
2023/02/25 06:03:38;;;;;;;0.10;0.10;;;;;;;-0.69;86.58;97801.41;5065693;28;20540;-69
2023/02/25 06:06:07;;;;;;;0.10;0.10;;;;;;;-0.65;86.20;97786.41;5068510;28;20194;-70
2023/02/25 06:08:34;;;;;;;0.20;0.20;;;;;;;-0.54;86.12;97775.81;5064919;28;20072;-69
2023/02/25 06:11:01;;;;;;;0.10;0.10;;;;;;;-0.43;85.69;97780.19;5066104;28;20053;-70
2023/02/25 06:13:27;;;;;;;0.10;0.10;;;;;;;-0.36;85.25;97778.16;5065787;28;20076;-69
2023/02/25 06:15:53;;;;;;;0.10;0.10;;;;;;;-0.34;85.43;97789.44;5061344;28;20527;-70
2023/02/25 06:18:19;;;;;;;0.10;0.10;;;;;;;-0.32;85.14;97789.16;5065331;28;20040;-71
2023/02/25 06:20:45;;;;;;;0.20;0.20;;;;;;;-0.27;85.20;97791.94;5066998;28;20488;-71
2023/02/25 06:23:13;;;;;;;0.10;0.10;;;;;;;-0.26;84.95;97800.78;5061585;28;20044;-71
2023/02/25 06:25:39;;;;;;;0.20;0.20;;;;;;;-0.22;85.09;97788.50;5060323;28;20087;-71
2023/02/25 06:28:05;;;;;;;0.10;0.10;;;;;;;-0.13;84.91;97796.91;5062619;28;20139;-70
2023/02/25 06:30:32;;;;;;;0.10;0.10;;;;;;;-0.10;84.62;97793.69;5065783;28;20045;-70
2023/02/25 06:32:58;;;;;;;0.53;0.30;;;;;;;-0.06;84.43;97801.00;5065584;28;20516;-71
2023/02/25 06:35:24;;;;;;;0.13;0.13;;;;;;;-0.07;84.31;97798.56;5064458;28;20040;-71
2023/02/25 06:37:55;;;;;;;0.20;0.20;;;;;;;-0.09;84.25;97781.88;5062716;28;20048;-71
2023/02/25 06:40:22;;;;;;;0.52;0.20;;;;;;;-0.03;84.14;97783.53;5041234;28;20143;-72
2023/02/25 06:42:48;;;;;;;0.20;0.20;;;;;;;0.02;84.29;97782.78;5062981;28;20056;-71
2023/02/25 06:45:15;;;;;;;0.15;0.15;;;;;;;0.02;84.14;97788.16;5063031;28;20076;-71
2023/02/25 06:47:41;;;;;;;0.10;0.10;;;;;;;0.01;83.95;97787.38;5060020;28;20143;-72
2023/02/25 06:50:08;;;;;;;0.10;0.10;;;;;;;0.02;84.00;97805.09;5062565;28;20051;-71
2023/02/25 06:52:34;;;;;;;0.20;0.20;;;;;;;0.03;84.13;97798.66;5042020;28;20052;-71
2023/02/25 06:55:01;;;;;;;0.20;0.20;;;;;;;0.11;84.11;97789.34;5026409;28;20570;-72
2023/02/25 06:57:28;;;;;;;0.20;0.20;;;;;;;0.22;83.81;97796.41;5044568;28;20053;-71
2023/02/25 06:59:56;;;;;;;0.10;0.10;;;;;;;0.32;83.65;97789.50;5043697;28;20071;-72
2023/02/25 07:02:22;;;;;;;0.10;0.10;;;;;;;0.36;83.50;97794.09;5032497;28;20076;-70
2023/02/25 07:04:51;;;;;;;0.10;0.10;;;;;;;0.44;83.10;97783.94;5052574;28;20266;-71
2023/02/25 07:07:17;;;;;;;0.20;0.20;;;;;;;0.44;82.65;97794.69;5069778;28;20082;-72
2023/02/25 07:09:44;;;;;;;0.10;0.10;;;;;;;0.38;82.27;97788.44;5067631;28;20059;-72
2023/02/25 07:12:10;;;;;;;0.10;0.10;;;;;;;0.36;82.58;97788.72;5067535;28;20048;-72
2023/02/25 07:14:37;;;;;;;0.20;0.20;;;;;;;0.37;82.65;97793.03;5067827;28;20047;-72
2023/02/25 07:17:03;;;;;;;0.10;0.10;;;;;;;0.44;82.65;97794.69;5068966;28;20044;-70
2023/02/25 07:19:30;;;;;;;0.20;0.20;;;;;;;0.53;82.58;97785.88;5027811;28;20044;-69
2023/02/25 07:21:56;;;;;;;0.10;0.10;;;;;;;0.65;82.21;97796.47;5048105;28;20072;-69
2023/02/25 07:24:23;;;;;;;0.10;0.10;;;;;;;0.73;81.93;97799.72;5062247;28;20087;-70
2023/02/25 07:26:49;;;;;;;0.10;0.10;;;;;;;0.77;81.74;97798.13;5044419;28;20071;-70
2023/02/25 07:29:15;;;;;;;0.20;0.20;;;;;;;0.73;81.15;97797.03;5048469;28;20053;-70
2023/02/25 07:31:44;;;;;;;0.10;0.10;;;;;;;0.70;81.39;97790.28;5064861;28;20044;-70
2023/02/25 07:34:10;;;;;;;0.10;0.10;;;;;;;0.70;81.46;97804.56;5069185;28;20056;-70
2023/02/25 07:36:36;;;;;;;0.20;0.20;;;;;;;0.72;81.49;97801.63;5065522;28;20048;-69
2023/02/25 07:39:05;;;;;;;0.10;0.10;;;;;;;0.62;81.74;97791.59;5065692;28;20045;-70
2023/02/25 07:41:31;;;;;;;0.10;0.10;;;;;;;0.73;81.86;97800.56;5066322;28;20056;-69
2023/02/25 07:44:01;;;;;;;0.40;0.20;;;;;;;0.76;81.98;97807.28;5067669;28;20079;-70
2023/02/25 07:46:29;;;;;;;0.10;0.10;;;;;;;0.76;81.89;97797.34;5050629;28;20060;-70
2023/02/25 07:48:56;;;;;;;0.20;0.20;;;;;;;0.74;81.91;97804.03;5068965;28;20045;-70
2023/02/25 07:51:23;;;;;;;;;;;;;;;0.67;82.30;97799.69;5069097;28;20091;-71
2023/02/25 07:53:51;;;;;;;0.10;0.10;;;;;;;0.68;82.29;97804.00;5048883;28;19955;-72
2023/02/25 07:56:19;;;;;;;0.10;0.10;;;;;;;0.71;82.28;97805.38;5067031;28;20063;-72
2023/02/25 07:58:45;;;;;;;;;;;;;;;0.80;82.21;97806.50;5066440;28;20090;-72
2023/02/25 08:01:18;;;;;;;0.10;0.10;;;;;;;0.88;82.00;97805.19;5067012;28;19952;-72
2023/02/25 08:03:47;;;;;;;0.10;0.10;;;;;;;0.91;81.65;97810.06;5067691;28;20087;-72
2023/02/25 08:06:14;;;;;;;0.20;0.20;;;;;;;0.96;81.67;97801.22;5050860;28;20059;-72
2023/02/25 08:08:40;;;;;;;0.20;0.20;;;;;;;1.09;81.52;97806.13;5068595;28;20102;-71
2023/02/25 08:11:07;;;;;;;0.10;0.10;;;;;;;1.20;81.28;97801.59;5067973;28;20492;-72
2023/02/25 08:13:34;;;;;;;0.20;0.20;;;;;;;1.36;81.16;97804.34;5068566;28;20062;-72
2023/02/25 08:16:03;;;;;;;0.10;0.10;;;;;;;1.57;80.51;97807.94;5069070;28;20528;-73
2023/02/25 08:18:29;;;;;;;0.10;0.10;;;;;;;1.52;80.07;97806.03;5052129;28;20053;-72
2023/02/25 08:20:57;;;;;;;0.10;0.10;;;;;;;1.49;80.06;97808.47;5070299;28;20045;-72
2023/02/25 08:23:24;;;;;;;0.10;0.10;;;;;;;1.40;80.36;97824.28;5068930;28;20458;-72
2023/02/25 08:25:52;;;;;;;0.10;0.10;;;;;;;1.41;80.49;97810.59;5070299;28;20658;-73
2023/02/25 08:28:18;;;;;;;0.17;0.17;;;;;;;1.38;80.68;97815.69;5067649;28;20037;-73
2023/02/25 08:30:44;;;;;;;0.10;0.10;;;;;;;1.44;81.11;97816.50;5066786;28;20678;-74
2023/02/25 08:33:10;;;;;;;0.10;0.10;;;;;;;1.52;80.61;97813.31;5051888;28;20044;-73
2023/02/25 08:35:36;;;;;;;0.15;0.15;;;;;;;1.68;80.42;97812.28;5070228;28;20106;-74
2023/02/25 08:38:04;;;;;;;0.13;0.13;;;;;;;1.80;79.91;97814.75;5070077;28;20197;-73
2023/02/25 08:40:33;;;;;;;0.10;0.10;;;;;;;1.83;79.46;97814.22;5068311;28;20400;-74
2023/02/25 08:42:59;;;;;;;0.20;0.20;;;;;;;1.76;79.04;97810.97;5049463;28;20045;-73
2023/02/25 08:45:25;;;;;;;0.10;0.10;;;;;;;1.64;79.23;97821.16;5068919;28;20524;-73
2023/02/25 08:47:52;;;;;;;0.20;0.20;;;;;;;1.61;79.68;97825.19;5065790;28;20095;-74
2023/02/25 08:50:19;;;;;;;0.63;0.20;;;;;;;1.58;79.75;97806.06;5047459;28;20158;-73
2023/02/25 08:52:47;;;;;;;0.10;0.10;;;;;;;1.66;79.48;97819.84;5031274;28;20321;-73
2023/02/25 08:55:14;;;;;;;0.10;0.10;;;;;;;1.72;79.48;97828.75;5066854;28;20063;-73
2023/02/25 08:57:41;;;;;;;0.10;0.10;;;;;;;1.74;79.25;97818.50;5068811;28;20147;-73
2023/02/25 09:00:08;;;;;;;;;;;;;;;1.76;78.95;97834.41;5067248;28;20051;-73
2023/02/25 09:02:34;;;;;;;0.10;0.10;;;;;;;1.69;78.83;97824.69;5048552;28;19924;-73
2023/02/25 09:05:00;;;;;;;0.10;0.10;;;;;;;1.76;79.03;97829.84;5065707;28;20070;-73
2023/02/25 09:07:27;;;;;;;0.20;0.20;;;;;;;1.78;78.86;97824.16;5064448;28;20037;-74
2023/02/25 09:09:52;;;;;;;0.10;0.10;;;;;;;1.66;78.96;97821.72;5066331;28;20096;-73
2023/02/25 09:12:19;;;;;;;0.10;0.10;;;;;;;1.63;79.27;97823.03;5061558;28;20498;-74
2023/02/25 09:14:46;;;;;;;0.10;0.10;;;;;;;1.56;79.81;97827.88;5055033;28;20048;-73
2023/02/25 09:17:12;;;;;;;0.10;0.10;;;;;;;1.62;79.78;97829.50;5055432;28;20055;-74
2023/02/25 09:19:38;;;;;;;0.17;0.17;;;;;;;1.66;79.78;97832.47;5051744;28;20432;-73
2023/02/25 09:22:05;;;;;;;0.20;0.10;;;;;;;1.67;80.01;97834.94;5062833;28;20063;-73
2023/02/25 09:24:32;;;;;;;0.20;0.20;;;;;;;1.58;80.13;97831.09;5053946;28;20036;-73
2023/02/25 09:26:59;;;;;;;0.20;0.20;;;;;;;1.62;80.73;97826.81;5066063;28;20049;-69
2023/02/25 09:29:25;;;;;;;0.10;0.10;;;;;;;1.62;80.79;97826.81;5047196;28;20653;-69
2023/02/25 09:31:52;;;;;;;0.10;0.10;;;;;;;1.58;80.73;97823.03;5062601;28;20853;-69
2023/02/25 09:34:19;;;;;;;;;;;;;;;1.61;80.70;97819.81;5063172;28;20105;-69
2023/02/25 09:36:45;;;;;;;0.10;0.10;;;;;;;1.54;80.82;97803.88;5064845;28;20406;-69
2023/02/25 09:39:12;;;;;;;0.20;0.20;;;;;;;1.73;80.83;97827.69;5066261;28;20504;-73
2023/02/25 09:41:48;;;;;;;0.30;0.30;;;;;;;1.80;80.54;97817.44;5065131;28;20052;-73
2023/02/25 09:44:18;;;;;;;0.30;0.20;;;;;;;1.90;80.35;97811.25;5065944;28;20248;-73
2023/02/25 09:46:50;;;;;;;0.20;0.20;;;;;;;2.00;80.12;97809.66;5067115;28;20139;-74
2023/02/25 09:49:24;;;;;;;0.13;0.13;;;;;;;2.03;79.79;97801.88;5053232;28;20079;-73
2023/02/25 09:51:58;;;;;;;0.10;0.10;;;;;;;2.12;79.41;97805.63;5063709;28;20072;-73
2023/02/25 09:54:30;;;;;;;0.10;0.10;;;;;;;2.13;79.56;97809.16;5064122;28;20051;-75
2023/02/25 09:57:00;;;;;;;0.10;0.10;;;;;;;2.13;79.57;97799.16;5059966;28;20471;-74
2023/02/25 09:59:28;;;;;;;0.20;0.20;;;;;;;2.29;79.61;97801.06;5063231;28;20527;-73
2023/02/25 10:01:58;;;;;;;0.15;0.15;;;;;;;2.46;78.98;97803.47;5065435;28;20098;-74
2023/02/25 10:04:32;;;;;;;0.20;0.20;;;;;;;2.50;78.50;97808.06;5062898;28;20080;-73
2023/02/25 10:07:07;;;;;;;0.10;0.10;;;;;;;2.48;78.96;97810.25;5064788;28;20473;-69
2023/02/25 10:09:41;;;;;;;0.20;0.20;;;;;;;2.50;79.75;97808.06;5065175;28;20593;-68
2023/02/25 10:12:20;;;;;;;0.20;0.20;;;;;;;2.36;80.96;97793.50;5064751;28;20075;-69
2023/02/25 10:15:00;;;;;;;0.10;0.10;;;;;;;2.27;82.30;97798.63;5065324;28;20052;-69
2023/02/25 10:17:43;;;;;;;0.43;0.25;;;;;;;2.12;83.85;97802.16;5063384;28;20067;-69
2023/02/25 10:20:37;;;;;;;0.10;0.10;;;;;;;1.96;85.14;97807.50;5063875;28;20151;-69
2023/02/25 10:23:13;;;;;;;0.20;0.20;;;;;;;1.83;86.30;97814.22;5064352;28;20044;-69
2023/02/25 10:25:43;;;;;;;0.20;0.20;;;;;;;1.80;87.08;97813.94;5064123;28;20055;-69
2023/02/25 10:28:14;;;;;;;0.10;0.10;;;;;;;1.76;87.65;97820.94;5063727;28;20594;-69
2023/02/25 10:30:50;;;;;;;0.20;0.20;;;;;;;1.64;87.88;97813.09;5065240;28;20051;-69
2023/02/25 10:33:20;;;;;;;0.20;0.20;;;;;;;1.59;88.56;97816.56;5044769;28;20108;-69
2023/02/25 10:35:51;;;;;;;0.10;0.10;;;;;;;1.58;88.69;97819.53;5042802;28;20127;-70
2023/02/25 10:38:17;;;;;;;0.10;0.10;;;;;;;1.58;89.31;97816.84;5044177;28;20484;-69
2023/02/25 10:40:43;;;;;;;0.20;0.20;;;;;;;1.64;89.50;97818.47;5050716;28;20143;-72
2023/02/25 10:43:19;;;;;;;0.10;0.10;;;;;;;1.63;89.31;97819.53;5066405;28;20041;-69
2023/02/25 10:45:48;;;;;;;0.13;0.13;;;;;;;1.54;88.93;97822.75;5071347;28;20045;-69
2023/02/25 10:48:19;;;;;;;0.10;0.10;;;;;;;1.46;88.78;97827.81;5069645;28;20079;-73
2023/02/25 10:51:04;;;;;;;0.15;0.15;;;;;;;1.41;88.92;97825.94;5066897;28;20072;-73
2023/02/25 10:53:31;;;;;;;0.10;0.10;;;;;;;1.44;89.12;97821.91;5048117;28;20049;-73
2023/02/25 10:55:59;;;;;;;0.10;0.10;;;;;;;1.44;88.72;97822.72;5050703;28;20530;-73
2023/02/25 10:58:35;;;;;;;0.10;0.10;;;;;;;1.50;88.71;97823.56;5051220;28;20056;-73
2023/02/25 11:01:08;;;;;;;0.10;0.10;;;;;;;1.50;88.09;97820.88;5046663;28;20512;-73
2023/02/25 11:03:52;;;;;;;0.10;0.10;;;;;;;1.57;87.80;97823.31;5050310;28;20049;-72
2023/02/25 11:06:24;;;;;;;0.20;0.20;;;;;;;1.69;87.52;97821.16;5069585;28;20518;-75
2023/02/25 11:08:52;;;;;;;0.17;0.17;;;;;;;1.75;87.07;97839.00;5068273;28;20056;-73
2023/02/25 11:11:20;;;;;;;0.20;0.20;;;;;;;1.79;86.33;97840.06;5050387;28;20102;-73
2023/02/25 11:14:00;;;;;;;0.10;0.10;;;;;;;1.81;85.13;97834.44;5061836;28;20052;-73
2023/02/25 11:16:27;;;;;;;0.10;0.10;;;;;;;1.90;85.45;97837.41;5064986;28;20048;-73
2023/02/25 11:18:57;;;;;;;0.10;0.10;;;;;;;1.87;84.29;97827.16;5049094;28;20118;-72
2023/02/25 11:21:34;;;;;;;0.10;0.10;;;;;;;1.84;84.11;97836.59;5044050;28;20045;-72
2023/02/25 11:24:07;;;;;;;0.10;0.10;;;;;;;1.89;83.78;97823.13;5049489;28;20041;-72
2023/02/25 11:26:36;;;;;;;0.10;0.10;;;;;;;1.97;83.05;97832.56;5031442;28;20057;-73
2023/02/25 11:29:08;;;;;;;0.10;0.10;;;;;;;2.02;82.97;97837.16;5064303;28;20059;-73
2023/02/25 11:31:36;;;;;;;0.10;0.10;;;;;;;2.03;82.46;97838.78;5047255;28;20052;-73
2023/02/25 11:34:05;;;;;;;0.20;0.20;;;;;;;2.03;81.98;97841.47;5064588;28;20135;-73
2023/02/25 11:36:35;;;;;;;0.10;0.10;;;;;;;2.02;81.85;97839.88;5044129;28;20159;-72
2023/02/25 11:39:15;;;;;;;0.10;0.10;;;;;;;2.01;81.78;97839.03;5053088;28;20143;-73
2023/02/25 11:41:43;;;;;;;0.10;0.10;;;;;;;2.02;81.16;97832.56;5069847;28;20408;-73
2023/02/25 11:44:25;;;;;;;0.40;0.10;;;;;;;1.98;81.37;97821.53;5068898;28;20082;-72
2023/02/25 11:47:02;;;;;;;0.10;0.10;;;;;;;2.13;81.04;97830.72;5068743;28;20060;-72